Stations météo

réclame
Mon MeteoGroup
Kew Gardens, Grande-Bretagne (99095): Température de l'air & dewpoint: 29.03.2020 00:00:00 - 04.04.2020 00:00:00 (BST)Kew Gardens, Grande-Bretagne (99095): Température de l'air -20cm & Température de l'air -100cm: 29.03.2020 00:00:00 - 04.04.2020 00:00:00 (BST)Kew Gardens, Grande-Bretagne (99095): Vitesse du vent & gusts: 29.03.2020 00:00:00 - 04.04.2020 00:00:00 (BST)Kew Gardens, Grande-Bretagne (99095): Direction du vent: 29.03.2020 00:00:00 - 04.04.2020 00:00:00 (BST)Kew Gardens, Grande-Bretagne (99095): Quantités de précipitations: 29.03.2020 00:00:00 - 04.04.2020 00:00:00 (BST)
Date & Time tt [°C] td [°C] tt -20cm [°C] tt -100cm [°C] ff [km/h] ff [knt] fx [km/h] fx [knt] dd rr [mm]
04.04.2020 00:00:00 2,5 0,9 - - 0 0 - - N 0,0
03.04.2020 23:00:00 3,6 1,1 - - 0 0 - - N 0,0
03.04.2020 22:00:00 5,0 1,8 - - 2 1 - - SW 0,0
03.04.2020 21:00:00 6,7 1,4 - - 4 2 - - SW 0,0
03.04.2020 20:00:00 11,4 1,7 - - 4 2 - - NW 0,0
03.04.2020 19:00:00 12,1 1,0 - - 8 4 - - W 0,0
03.04.2020 18:00:00 12,8 0,6 - - 5 3 - - W 0,0
03.04.2020 17:00:00 13,2 1,5 - - 9 5 - - WSW 0,0
03.04.2020 16:00:00 12,4 2,1 - - 9 5 - - W 0,0
03.04.2020 15:00:00 12,6 2,3 - - 8 4 - - W 0,0
03.04.2020 14:00:00 12,2 2,4 - - 9 5 - - W 0,0
03.04.2020 13:00:00 11,1 3,3 - - 8 4 - - WSW 0,0
03.04.2020 12:00:00 9,9 2,2 - - 5 3 - - WSW 0,0
03.04.2020 11:00:00 9,2 2,0 - - 4 2 - - WSW 0,0
03.04.2020 10:00:00 9,0 3,5 8,5 9,2 5 3 - - WSW 0,0
03.04.2020 09:00:00 8,5 5,2 - - 4 2 - - WSW 0,0
03.04.2020 08:00:00 7,5 5,9 - - 2 1 - - WSW 0,0
03.04.2020 07:00:00 6,6 5,0 - - 4 2 - - SW 0,0
03.04.2020 06:00:00 6,8 5,2 - - 4 2 - - WSW 0,0
03.04.2020 05:00:00 7,0 5,0 - - 2 1 - - SSW 0,0
03.04.2020 04:00:00 8,1 5,0 - - 5 3 - - NW 0,0
03.04.2020 03:00:00 8,0 4,8 - - 2 1 - - N 0,0
03.04.2020 02:00:00 7,4 4,7 - - 5 3 - - W 0,0
03.04.2020 01:00:00 8,1 4,7 - - 8 4 - - W 0,0
03.04.2020 00:00:00 7,2 4,3 - - 8 4 - - W 0,0
02.04.2020 23:00:00 9,0 4,3 - - 8 4 - - W 0,0
02.04.2020 22:00:00 10,5 4,9 - - 13 7 - - W 0,0
02.04.2020 21:00:00 11,1 4,7 - - 11 6 - - W 0,0
02.04.2020 20:00:00 11,7 4,0 - - 13 7 - - WNW 0,0
02.04.2020 19:00:00 12,3 4,6 - - 13 7 - - W 0,0
02.04.2020 18:00:00 12,5 5,3 - - 11 6 - - W 0,0
02.04.2020 17:00:00 12,8 4,9 - - 13 7 - - W 0,0
02.04.2020 16:00:00 13,5 5,2 - - 15 8 - - W 0,0
02.04.2020 15:00:00 13,2 4,7 - - 15 8 - - W 0,0
02.04.2020 14:00:00 12,6 3,2 - - 15 8 - - W 0,0
02.04.2020 13:00:00 11,9 2,8 - - 13 7 - - WNW 0,0
02.04.2020 12:00:00 12,0 4,3 - - 9 5 - - W 0,0
02.04.2020 11:00:00 11,1 4,6 - - 8 4 - - W 0,0
02.04.2020 10:00:00 8,8 3,8 7,7 9,0 9 5 - - W 0,0
02.04.2020 09:00:00 7,7 3,8 - - 9 5 - - W 0,0
02.04.2020 08:00:00 6,7 2,9 - - 9 5 - - W 0,0
02.04.2020 07:00:00 5,8 1,9 - - 8 4 - - W 0,0
02.04.2020 06:00:00 5,6 0,9 - - 5 3 - - W 0,0
02.04.2020 05:00:00 5,8 1,5 - - 5 3 - - W 0,0
02.04.2020 04:00:00 6,5 1,2 - - 5 3 - - WNW 0,0
02.04.2020 03:00:00 6,8 1,0 - - 8 4 - - WNW 0,0
02.04.2020 02:00:00 6,8 0,9 - - 8 4 - - WNW 0,0
02.04.2020 01:00:00 7,0 0,8 - - 8 4 - - WNW 0,0
02.04.2020 00:00:00 7,3 0,7 - - 5 3 - - NW 0,0
01.04.2020 23:00:00 7,3 0,1 - - 8 4 - - NW 0,0
01.04.2020 22:00:00 7,5 0,2 - - 5 3 - - WNW 0,0
01.04.2020 21:00:00 7,7 0,6 - - 8 4 - - NW 0,0
01.04.2020 20:00:00 8,0 0,3 - - 13 7 - - NW 0,0
01.04.2020 19:00:00 8,3 0,4 - - 11 6 - - NW 0,0
01.04.2020 18:00:00 8,5 -0,3 - - 9 5 - - NW 0,0
01.04.2020 17:00:00 8,6 -0,8 - - 8 4 - - WNW 0,0
01.04.2020 16:00:00 8,6 -1,5 - - 13 7 - - NW 0,0
01.04.2020 15:00:00 8,8 -1,3 - - 5 3 - - WNW 0,0
01.04.2020 14:00:00 8,9 -0,5 - - 9 5 - - NW 0,0
01.04.2020 13:00:00 8,8 -0,3 - - 9 5 - - NW 0,0
01.04.2020 12:00:00 8,5 0,0 - - 8 4 - - WNW 0,0
01.04.2020 11:00:00 8,3 -0,4 - - 4 2 - - SSW 0,0
01.04.2020 10:00:00 7,3 0,3 7,0 9,2 4 2 - - W 0,0
01.04.2020 09:00:00 4,6 1,6 - - 2 1 - - W 0,0
01.04.2020 08:00:00 -0,9 -1,1 - - 2 1 - - W 0,0
01.04.2020 07:00:00 -2,5 -3,1 - - 2 1 - - W 0,0
01.04.2020 06:00:00 -1,8 -2,5 - - 2 1 - - NNW 0,0
01.04.2020 05:00:00 -1,5 -2,0 - - 2 1 - - N 0,0
01.04.2020 04:00:00 -1,0 -1,8 - - 4 2 - - NNW 0,0
01.04.2020 03:00:00 -0,4 -2,1 - - 2 1 - - NNW 0,0
01.04.2020 02:00:00 1,7 -1,2 - - 2 1 - - N 0,0
01.04.2020 01:00:00 3,7 -0,8 - - 5 3 - - ENE 0,0
01.04.2020 00:00:00 3,6 -0,8 - - 5 3 - - NE 0,0
31.03.2020 23:00:00 3,1 -1,3 - - 8 4 - - ENE 0,0
31.03.2020 22:00:00 3,7 -2,0 - - 4 2 - - E 0,0
31.03.2020 21:00:00 5,0 -1,1 - - 8 4 - - ESE 0,0
31.03.2020 20:00:00 5,9 -0,4 - - 8 4 - - ESE 0,0
31.03.2020 19:00:00 8,0 0,7 - - 8 4 - - ESE 0,0
31.03.2020 18:00:00 9,7 0,8 - - 11 6 - - ENE 0,0
31.03.2020 17:00:00 9,9 0,5 - - 11 6 - - ENE 0,0
31.03.2020 16:00:00 9,5 -0,5 - - 15 8 - - ENE 0,0
31.03.2020 15:00:00 10,0 0,4 - - 13 7 - - ENE 0,0
31.03.2020 14:00:00 9,5 -0,9 - - 13 7 - - E 0,0
31.03.2020 13:00:00 8,9 -0,2 - - 11 6 - - ENE 0,0
31.03.2020 12:00:00 8,7 0,3 - - 15 8 - - ENE 0,0
31.03.2020 11:00:00 7,9 0,7 - - 13 7 - - ENE 0,0
31.03.2020 10:00:00 7,8 2,1 7,4 9,2 15 8 - - ENE 0,0
31.03.2020 09:00:00 6,2 2,0 - - 9 5 - - NE 0,0
31.03.2020 08:00:00 4,3 1,1 - - 11 6 - - NNE 0,0
31.03.2020 07:00:00 3,1 0,4 - - 5 3 - - NNE 0,0
31.03.2020 06:00:00 3,4 0,7 - - 8 4 - - NNE 0,0
31.03.2020 05:00:00 3,4 0,5 - - 8 4 - - NNE 0,0
31.03.2020 04:00:00 3,8 0,5 - - 8 4 - - NNE 0,0
31.03.2020 03:00:00 4,3 1,0 - - 11 6 - - NNE 0,0
31.03.2020 02:00:00 4,4 1,7 - - 8 4 - - NNE 0,0
31.03.2020 01:00:00 5,0 2,2 - - 5 3 - - NNE 0,0
31.03.2020 00:00:00 5,5 2,0 - - 9 5 - - NNE 0,0
30.03.2020 23:00:00 5,8 1,9 - - 11 6 - - NNE 0,0
30.03.2020 22:00:00 6,6 2,4 - - 11 6 - - NNE 0,0
30.03.2020 21:00:00 7,0 1,9 - - 9 5 - - N 0,0
30.03.2020 20:00:00 7,7 2,0 - - 11 6 - - N 0,0
30.03.2020 19:00:00 8,8 1,1 - - 11 6 - - NNE 0,0
30.03.2020 18:00:00 9,1 1,6 - - 13 7 - - NNE 0,0
30.03.2020 17:00:00 9,7 0,3 - - 11 6 - - NE 0,0
30.03.2020 16:00:00 9,9 1,2 - - 15 8 - - NNE 0,2
30.03.2020 15:00:00 7,6 4,0 - - 9 5 - - ENE 0,2
30.03.2020 14:00:00 7,9 2,4 - - 8 4 - - NNE 0,0
30.03.2020 13:00:00 7,5 3,4 - - 8 4 - - NNE 0,0
30.03.2020 12:00:00 6,6 1,6 - - 5 3 - - N 0,0
30.03.2020 11:00:00 6,0 1,3 - - 8 4 - - N 0,0
30.03.2020 10:00:00 5,3 -0,4 7,4 9,4 5 3 - - N 0,0
30.03.2020 09:00:00 4,2 -2,0 - - 9 5 - - NNW 0,0
30.03.2020 08:00:00 3,6 -1,2 - - 8 4 - - NNW 0,0
30.03.2020 07:00:00 3,3 -1,2 - - 8 4 - - N 0,0
30.03.2020 06:00:00 2,8 -0,9 - - 5 3 - - N 0,0
30.03.2020 05:00:00 2,4 -0,9 - - 8 4 - - N 0,0
30.03.2020 04:00:00 3,0 -0,4 - - 5 3 - - N 0,0
30.03.2020 03:00:00 3,5 -0,6 - - 8 4 - - N 0,0
30.03.2020 02:00:00 3,0 -0,5 - - 5 3 - - N 0,0
30.03.2020 01:00:00 2,7 -2,2 - - 5 3 - - N 0,0
30.03.2020 00:00:00 2,5 -4,0 - - 5 3 - - N 0,0
29.03.2020 23:00:00 3,2 -4,7 - - 8 4 - - NNE 0,0
29.03.2020 22:00:00 3,9 -5,7 - - 9 5 - - NE 0,0
29.03.2020 21:00:00 4,2 -5,9 - - 11 6 - - NNE 0,0
29.03.2020 20:00:00 5,1 -6,1 - - 15 8 - - NNE 0,0
29.03.2020 19:00:00 5,6 -7,0 - - 13 7 48 26 NNE 0,0
29.03.2020 18:00:00 6,7 -6,3 - - 16 9 46 25 NNE 0,0
29.03.2020 17:00:00 7,5 -5,2 - - 15 8 50 27 NNE 0,0
29.03.2020 16:00:00 7,4 -3,9 - - 16 9 - - NNE 0,0
29.03.2020 15:00:00 6,7 -1,3 - - 18 10 - - NNE 0,0
29.03.2020 14:00:00 6,5 -1,4 - - 18 10 46 25 NE 0,0
29.03.2020 13:00:00 6,1 -2,3 - - 18 10 52 28 NNE 0,0
29.03.2020 12:00:00 6,4 -1,6 - - 18 10 52 28 NNE 0,0
29.03.2020 11:00:00 6,5 -3,7 - - 18 10 52 28 NNE 0,0
29.03.2020 10:00:00 6,5 -4,2 8,0 9,4 16 9 55 30 NNE 0,0
29.03.2020 09:00:00 5,5 -4,8 - - 18 10 - - NE 0,0
29.03.2020 08:00:00 4,2 -2,6 - - 13 7 - - NNE 0,0
29.03.2020 07:00:00 4,0 -2,8 - - 11 6 - - N 0,0
29.03.2020 06:00:00 4,2 -2,1 - - 13 7 - - NNE 0,0
29.03.2020 05:00:00 4,7 -2,9 - - 13 7 - - NNE 0,0
29.03.2020 04:00:00 4,6 -2,8 - - 13 7 - - NNE 0,0
29.03.2020 03:00:00 4,4 -1,1 - - 11 6 - - NNE 0,0
29.03.2020 02:00:00 4,8 -0,8 - - 13 7 - - NNE 0,0
29.03.2020 01:00:00 5,0 0,2 - - 13 7 - - NNE 0,0
29.03.2020 00:00:00 - - - - - - - - - -

tt = Température de l'air
td = dewpoint
tt -20cm = Température de l'air -20cm
tt -100cm = Température de l'air -100cm
ff = Vitesse du vent
fx = gusts
dd = Direction du vent
rr = Quantités de précipitations

stations d'obs. à proximité